createdAt,value
2019-01-25T00:02:25.473Z,51.77
2019-01-25T00:05:29.167Z,40.37
2019-01-25T00:08:32.803Z,48.17
2019-01-25T00:11:36.502Z,49.03
2019-01-25T00:14:40.152Z,48.17
2019-01-25T00:17:43.890Z,41.50
2019-01-25T00:20:48.062Z,45.77
2019-01-25T00:23:51.790Z,58.33
2019-01-25T00:26:55.446Z,53.90
2019-01-25T00:29:59.185Z,44.50
2019-01-25T00:33:02.814Z,38.10
2019-01-25T00:36:06.535Z,44.23
2019-01-25T00:39:10.114Z,48.73
2019-01-25T00:42:13.872Z,43.67
2019-01-25T00:45:17.475Z,45.97
2019-01-25T00:48:21.163Z,39.97
2019-01-25T00:51:24.836Z,44.80
2019-01-25T00:54:28.523Z,40.03
2019-01-25T00:57:32.160Z,38.47
2019-01-25T01:00:35.804Z,41.17
2019-01-25T01:03:39.424Z,36.20
2019-01-25T01:06:43.132Z,42.43
2019-01-25T01:09:47.077Z,36.43
2019-01-25T01:12:50.944Z,37.83
2019-01-25T01:15:54.530Z,40.87
2019-01-25T01:18:58.184Z,38.43
2019-01-25T01:22:01.790Z,43.13
2019-01-25T01:25:06.250Z,43.10
2019-01-25T01:28:09.853Z,37.27
2019-01-25T01:31:13.483Z,38.87
2019-01-25T01:34:18.355Z,43.33
2019-01-25T01:37:22.047Z,36.67
2019-01-25T01:40:25.629Z,34.27
2019-01-25T01:43:29.315Z,38.47
2019-01-25T01:46:32.965Z,37.90
2019-01-25T01:49:36.675Z,26.57
2019-01-25T01:52:40.305Z,35.80
2019-01-25T01:55:43.943Z,42.87
2019-01-25T01:58:47.582Z,42.33
2019-01-25T02:01:51.148Z,45.43
2019-01-25T02:04:54.792Z,36.67
2019-01-25T02:07:58.443Z,37.37
2019-01-25T02:11:02.094Z,40.27
2019-01-25T02:14:05.732Z,42.57
2019-01-25T02:17:09.311Z,36.83
2019-01-25T02:20:18.754Z,51.40
2019-01-25T02:23:22.414Z,43.23
2019-01-25T02:26:26.092Z,48.50
2019-01-25T02:29:29.742Z,36.83
2019-01-25T02:32:33.453Z,51.00
2019-01-25T02:35:37.033Z,47.50
2019-01-25T02:38:40.709Z,37.30
2019-01-25T02:41:44.376Z,37.53
2019-01-25T02:44:48.042Z,44.70
2019-01-25T02:47:51.682Z,35.03
2019-01-25T02:50:55.378Z,31.90
2019-01-25T02:53:59.052Z,41.37
2019-01-25T02:57:02.692Z,34.37
2019-01-25T03:00:15.480Z,42.80
2019-01-25T03:03:19.224Z,38.47
2019-01-25T03:06:22.880Z,46.13
2019-01-25T03:09:26.512Z,40.60
2019-01-25T03:12:30.173Z,35.33
2019-01-25T03:15:33.864Z,42.50
2019-01-25T03:18:37.513Z,40.70
2019-01-25T03:21:41.213Z,37.63
2019-01-25T03:24:44.812Z,43.17
2019-01-25T03:27:48.494Z,39.43
2019-01-25T03:30:52.154Z,40.83
2019-01-25T03:33:55.764Z,42.10
2019-01-25T03:36:59.413Z,35.73
2019-01-25T03:40:03.312Z,39.60
2019-01-25T03:43:07.007Z,42.07
2019-01-25T03:46:10.606Z,44.07
2019-01-25T03:49:14.292Z,42.13
2019-01-25T03:52:17.966Z,41.73
2019-01-25T03:55:21.619Z,38.57
2019-01-25T03:58:25.172Z,38.40
2019-01-25T04:01:28.756Z,38.37
2019-01-25T04:04:32.442Z,45.13
2019-01-25T04:07:36.083Z,39.37
2019-01-25T04:10:39.772Z,42.77
2019-01-25T04:13:43.432Z,36.27
2019-01-25T04:16:47.146Z,39.10
2019-01-25T04:19:50.803Z,30.80
2019-01-25T04:22:54.516Z,34.60
2019-01-25T04:25:58.153Z,44.30
2019-01-25T04:29:01.863Z,41.00
2019-01-25T04:32:05.502Z,36.70
2019-01-25T04:35:09.285Z,39.90
2019-01-25T04:38:12.947Z,39.63
2019-01-25T04:41:17.823Z,36.20
2019-01-25T04:44:21.471Z,40.00
2019-01-25T04:47:27.916Z,39.93
2019-01-25T04:50:31.563Z,34.00
2019-01-25T04:53:36.642Z,36.80
2019-01-25T04:56:40.294Z,34.30
2019-01-25T04:59:43.912Z,38.20
2019-01-25T05:02:58.462Z,40.80
2019-01-25T05:06:02.161Z,39.90
2019-01-25T05:09:07.204Z,41.10
2019-01-25T05:12:10.881Z,36.13
2019-01-25T05:15:14.562Z,38.77
2019-01-25T05:18:18.255Z,37.97
2019-01-25T05:21:22.115Z,38.00
2019-01-25T05:24:25.793Z,43.20
2019-01-25T05:27:29.377Z,42.90
2019-01-25T05:30:33.082Z,39.93
2019-01-25T05:33:36.745Z,40.63
2019-01-25T05:36:40.364Z,37.87
2019-01-25T05:39:44.011Z,47.20
2019-01-25T05:42:47.797Z,46.87
2019-01-25T05:45:51.454Z,41.13
2019-01-25T05:48:55.163Z,47.17
2019-01-25T05:51:58.813Z,41.33
2019-01-25T05:55:02.452Z,38.43
2019-01-25T05:58:08.472Z,44.60
2019-01-25T06:01:12.096Z,48.20
2019-01-25T06:04:15.815Z,55.47
2019-01-25T06:07:19.964Z,49.53
2019-01-25T06:10:23.594Z,59.47
2019-01-25T06:13:27.277Z,51.10
2019-01-25T06:16:31.181Z,57.93
2019-01-25T06:19:37.175Z,48.87
2019-01-25T06:22:40.951Z,48.67
2019-01-25T06:25:46.264Z,48.63
2019-01-25T06:28:51.130Z,49.33
2019-01-25T06:31:54.893Z,54.30
2019-01-25T06:34:58.522Z,58.30
2019-01-25T06:38:02.261Z,47.37
2019-01-25T06:41:05.914Z,58.27
2019-01-25T06:44:09.617Z,50.03
2019-01-25T06:47:13.251Z,46.93
2019-01-25T06:50:17.072Z,49.07
2019-01-25T06:53:20.699Z,49.53
2019-01-25T06:56:24.387Z,51.07
2019-01-25T06:59:27.977Z,49.10
2019-01-25T07:02:31.657Z,54.13
2019-01-25T07:05:35.518Z,49.80
2019-01-25T07:08:39.117Z,52.57
2019-01-25T07:11:42.763Z,56.53
2019-01-25T07:14:46.627Z,55.80
2019-01-25T07:17:50.213Z,48.03
2019-01-25T07:20:53.837Z,55.23
2019-01-25T07:23:57.596Z,52.70
2019-01-25T07:27:01.271Z,52.70
2019-01-25T07:30:13.666Z,49.33
2019-01-25T07:33:17.532Z,53.63
2019-01-25T07:36:21.230Z,55.03
2019-01-25T07:39:28.121Z,51.50
2019-01-25T07:42:31.845Z,54.40
2019-01-25T07:45:35.528Z,48.37
2019-01-25T07:48:39.180Z,51.57
2019-01-25T07:51:42.859Z,54.50
2019-01-25T07:54:46.406Z,55.43
2019-01-25T07:57:50.073Z,55.57
2019-01-25T08:00:53.756Z,48.17
2019-01-25T08:03:57.466Z,52.23
2019-01-25T08:07:01.046Z,50.50
2019-01-25T08:10:08.020Z,53.67
2019-01-25T08:13:11.684Z,50.27
2019-01-25T08:16:15.584Z,51.93
2019-01-25T08:19:19.288Z,57.50
2019-01-25T08:22:23.025Z,49.63
2019-01-25T08:25:26.852Z,55.13
2019-01-25T08:28:30.521Z,58.87
2019-01-25T08:31:34.371Z,57.67
2019-01-25T08:34:38.026Z,54.03
2019-01-25T08:37:41.697Z,53.87
2019-01-25T08:40:45.365Z,56.67
2019-01-25T08:43:49.020Z,45.57
2019-01-25T08:46:52.718Z,54.13
2019-01-25T08:49:58.029Z,43.03
2019-01-25T08:53:01.679Z,49.63
2019-01-25T08:56:05.239Z,52.80
2019-01-25T08:59:08.931Z,55.57
2019-01-25T09:02:12.596Z,52.17
2019-01-25T09:05:16.620Z,60.50
2019-01-25T09:08:20.284Z,61.73
2019-01-25T09:11:23.955Z,61.10
2019-01-25T09:14:27.535Z,59.37
2019-01-25T09:17:31.228Z,65.83
2019-01-25T09:20:34.884Z,60.97
2019-01-25T09:23:38.645Z,64.77
2019-01-25T09:26:42.503Z,67.77
2019-01-25T09:29:46.208Z,73.60
2019-01-25T09:32:49.855Z,74.67
2019-01-25T09:35:53.485Z,72.10
2019-01-25T09:38:57.148Z,67.03
2019-01-25T09:42:00.755Z,72.37
2019-01-25T09:45:06.889Z,66.87
2019-01-25T09:48:10.613Z,71.73
2019-01-25T09:51:14.184Z,67.47
2019-01-25T09:54:17.877Z,71.23
2019-01-25T09:57:21.521Z,76.27
2019-01-25T10:00:28.287Z,79.50
2019-01-25T10:03:31.812Z,83.37
2019-01-25T10:06:35.505Z,96.23
2019-01-25T10:09:39.097Z,81.30
2019-01-25T10:12:43.384Z,79.50
2019-01-25T10:15:47.368Z,74.00
2019-01-25T10:18:50.978Z,76.13
2019-01-25T10:21:54.617Z,78.33
2019-01-25T10:24:58.320Z,74.37
2019-01-25T10:28:01.972Z,94.47
2019-01-25T10:31:05.693Z,79.43
2019-01-25T10:34:09.238Z,87.47
2019-01-25T10:37:12.934Z,84.77
2019-01-25T10:40:21.366Z,94.90
2019-01-25T10:43:25.318Z,100.27
2019-01-25T10:46:28.942Z,102.13
2019-01-25T10:49:32.642Z,95.50
2019-01-25T10:52:36.311Z,89.30
2019-01-25T10:55:40.013Z,87.40
2019-01-25T10:58:43.990Z,100.73
2019-01-25T11:01:47.604Z,86.37
2019-01-25T11:04:51.185Z,91.43
2019-01-25T11:07:54.877Z,97.70
2019-01-25T11:10:58.530Z,101.90
2019-01-25T11:14:02.213Z,106.97
2019-01-25T11:17:05.702Z,114.57
2019-01-25T11:20:12.778Z,104.40
2019-01-25T11:23:16.355Z,100.77
2019-01-25T11:26:20.041Z,109.60
2019-01-25T11:29:23.679Z,106.63
2019-01-25T11:32:27.355Z,114.60
2019-01-25T11:35:31.023Z,99.30
2019-01-25T11:38:34.717Z,110.47
2019-01-25T11:41:38.396Z,100.20
2019-01-25T11:44:42.111Z,99.00
2019-01-25T11:47:45.767Z,98.77
2019-01-25T11:50:49.483Z,103.83
2019-01-25T11:53:53.079Z,105.43
2019-01-25T11:56:56.797Z,113.43
2019-01-25T12:00:00.425Z,113.87
2019-01-25T12:03:04.340Z,110.53
2019-01-25T12:06:08.180Z,104.77
2019-01-25T12:09:12.053Z,112.40
2019-01-25T12:12:15.918Z,109.53
2019-01-25T12:15:19.829Z,112.70
2019-01-25T12:18:23.511Z,92.07
2019-01-25T12:21:27.142Z,109.57
2019-01-25T12:24:30.843Z,105.30
2019-01-25T12:27:34.654Z,94.30
2019-01-25T12:30:39.097Z,102.87
2019-01-25T12:33:43.516Z,100.63
2019-01-25T12:36:47.118Z,107.20
2019-01-25T12:39:50.756Z,115.40
2019-01-25T12:42:54.403Z,103.73
2019-01-25T12:45:58.129Z,115.10
2019-01-25T12:49:01.820Z,108.87
2019-01-25T12:52:08.372Z,119.63
2019-01-25T12:55:11.080Z,108.63
2019-01-25T12:58:14.715Z,119.17
2019-01-25T13:01:20.002Z,107.87
2019-01-25T13:04:23.605Z,107.33
2019-01-25T13:07:27.462Z,98.33
2019-01-25T13:10:32.214Z,103.43
2019-01-25T13:13:35.940Z,98.33
2019-01-25T13:16:39.498Z,111.60
2019-01-25T13:19:43.263Z,132.83
2019-01-25T13:22:46.908Z,120.30
2019-01-25T13:25:50.848Z,109.07
2019-01-25T13:28:54.580Z,123.87
2019-01-25T13:31:58.380Z,138.57
2019-01-25T13:35:02.286Z,121.30
2019-01-25T13:38:05.994Z,127.57
2019-01-25T13:41:09.645Z,121.83
2019-01-25T13:44:13.352Z,119.30
2019-01-25T13:47:17.078Z,119.23
2019-01-25T13:50:23.835Z,108.20
2019-01-25T13:53:27.511Z,117.37
2019-01-25T13:56:31.096Z,113.63
2019-01-25T13:59:34.837Z,120.27
2019-01-25T14:02:38.485Z,117.20
2019-01-25T14:05:42.198Z,115.57
2019-01-25T14:08:45.931Z,121.63
2019-01-25T14:11:49.652Z,127.43
2019-01-25T14:14:53.665Z,126.73
2019-01-25T14:17:57.277Z,129.23
2019-01-25T14:21:01.332Z,107.63
2019-01-25T14:24:06.084Z,100.50
2019-01-25T14:27:09.724Z,105.27
2019-01-25T14:30:16.584Z,105.53
2019-01-25T14:33:20.239Z,97.97
2019-01-25T14:36:24.015Z,102.97
2019-01-25T14:39:27.693Z,124.37
2019-01-25T14:42:31.402Z,127.13
2019-01-25T14:45:35.104Z,113.37
2019-01-25T14:48:38.833Z,116.30
2019-01-25T14:51:42.424Z,130.10
2019-01-25T14:54:46.092Z,148.47
2019-01-25T14:57:49.818Z,117.97
2019-01-25T15:00:53.564Z,130.60
2019-01-25T15:03:57.230Z,122.07
2019-01-25T15:07:00.853Z,122.90
2019-01-25T15:10:07.434Z,110.53
2019-01-25T15:13:11.115Z,109.03
2019-01-25T15:16:14.810Z,102.77
2019-01-25T15:19:18.519Z,115.93
2019-01-25T15:22:22.176Z,99.90
2019-01-25T15:25:25.990Z,112.47
2019-01-25T15:28:29.714Z,108.40
2019-01-25T15:31:33.428Z,115.17
2019-01-25T15:34:37.069Z,108.33
2019-01-25T15:37:40.835Z,112.77
2019-01-25T15:40:44.475Z,100.87
2019-01-25T15:43:48.178Z,107.53
2019-01-25T15:46:51.893Z,118.93
2019-01-25T15:49:55.642Z,131.10
2019-01-25T15:52:59.292Z,102.93
2019-01-25T15:56:03.003Z,129.37
2019-01-25T15:59:06.717Z,124.93
2019-01-25T16:02:10.383Z,109.23
2019-01-25T16:05:16.106Z,106.67
2019-01-25T16:08:19.804Z,112.87
2019-01-25T16:11:23.472Z,109.93
2019-01-25T16:14:27.194Z,113.27
2019-01-25T16:17:30.843Z,109.63
2019-01-25T16:20:34.545Z,119.20
2019-01-25T16:23:38.198Z,111.23
2019-01-25T16:26:42.248Z,118.40
2019-01-25T16:29:45.938Z,113.60
2019-01-25T16:32:49.622Z,118.07
2019-01-25T16:35:53.307Z,119.90
2019-01-25T16:38:56.976Z,121.70
2019-01-25T16:42:00.664Z,123.73
2019-01-25T16:45:06.665Z,120.00
2019-01-25T16:48:10.585Z,118.87
2019-01-25T16:51:14.395Z,128.83
2019-01-25T16:54:18.106Z,107.10
2019-01-25T16:57:21.803Z,125.03
2019-01-25T17:00:31.411Z,121.23
2019-01-25T17:03:35.293Z,103.50
2019-01-25T17:06:38.983Z,113.33
2019-01-25T17:09:42.651Z,128.20
2019-01-25T17:12:46.372Z,110.97
2019-01-25T17:15:50.004Z,117.43
2019-01-25T17:18:53.903Z,115.20
2019-01-25T17:21:57.533Z,96.70
2019-01-25T17:25:02.914Z,100.37
2019-01-25T17:28:06.830Z,103.10
2019-01-25T17:31:10.482Z,99.70
2019-01-25T17:34:14.187Z,106.00
2019-01-25T17:37:17.946Z,129.10
2019-01-25T17:40:27.853Z,104.20
2019-01-25T17:43:31.523Z,125.57
2019-01-25T17:46:35.198Z,98.23
2019-01-25T17:49:38.941Z,123.33
2019-01-25T17:52:42.582Z,118.50
2019-01-25T17:55:46.312Z,123.67
2019-01-25T17:58:49.952Z,113.17
2019-01-25T18:01:54.133Z,115.63
2019-01-25T18:04:57.802Z,105.73
2019-01-25T18:08:01.511Z,101.70
2019-01-25T18:11:05.232Z,110.47
2019-01-25T18:14:08.918Z,107.90
2019-01-25T18:17:12.704Z,121.23
2019-01-25T18:20:20.704Z,115.43
2019-01-25T18:23:25.608Z,108.17
2019-01-25T18:26:29.704Z,98.27
2019-01-25T18:29:33.367Z,130.20
2019-01-25T18:32:37.272Z,108.20
2019-01-25T18:35:41.112Z,111.00
2019-01-25T18:38:44.935Z,111.53
2019-01-25T18:41:48.702Z,98.67
2019-01-25T18:44:56.704Z,115.73
2019-01-25T18:47:57.690Z,127.63
2019-01-25T18:51:01.339Z,114.57
2019-01-25T18:54:05.040Z,105.43
2019-01-25T18:57:08.691Z,116.20
2019-01-25T19:00:18.108Z,99.43
2019-01-25T19:03:21.780Z,116.40
2019-01-25T19:06:25.445Z,112.60
2019-01-25T19:09:29.130Z,106.97
2019-01-25T19:12:34.135Z,106.43
2019-01-25T19:15:38.213Z,111.50
2019-01-25T19:18:41.858Z,114.13
2019-01-25T19:21:45.542Z,110.07
2019-01-25T19:24:49.287Z,108.80
2019-01-25T19:27:52.922Z,106.63
2019-01-25T19:30:56.632Z,114.80
2019-01-25T19:34:00.372Z,109.33
2019-01-25T19:37:04.131Z,114.67
2019-01-25T19:40:10.938Z,107.23
2019-01-25T19:43:14.897Z,114.53
2019-01-25T19:46:18.511Z,83.33
2019-01-25T19:49:22.202Z,107.87
2019-01-25T19:52:27.438Z,105.77
2019-01-25T19:55:32.837Z,105.60
2019-01-25T19:58:36.509Z,122.47
2019-01-25T20:01:40.217Z,105.20
2019-01-25T20:04:45.468Z,127.80
2019-01-25T20:07:49.166Z,100.37
2019-01-25T20:10:53.071Z,116.57
2019-01-25T20:13:58.302Z,103.17
2019-01-25T20:17:01.980Z,114.63
2019-01-25T20:20:08.853Z,94.53
2019-01-25T20:23:12.490Z,102.93
2019-01-25T20:26:17.423Z,89.70
2019-01-25T20:29:21.080Z,105.17
2019-01-25T20:32:24.803Z,89.70
2019-01-25T20:35:33.653Z,94.17
2019-01-25T20:38:37.372Z,89.87
2019-01-25T20:41:41.021Z,79.53
2019-01-25T20:44:44.982Z,88.37
2019-01-25T20:47:48.603Z,89.87
2019-01-25T20:50:52.295Z,93.93
2019-01-25T20:53:55.944Z,95.77
2019-01-25T20:56:59.789Z,97.27
2019-01-25T21:00:08.543Z,112.00
2019-01-25T21:03:12.470Z,86.67
2019-01-25T21:06:16.409Z,89.37
2019-01-25T21:09:20.266Z,96.13
2019-01-25T21:12:23.930Z,95.17
2019-01-25T21:15:35.146Z,102.53
2019-01-25T21:18:35.203Z,91.30
2019-01-25T21:21:38.875Z,111.97
2019-01-25T21:24:42.575Z,97.67
2019-01-25T21:27:46.297Z,107.83
2019-01-25T21:30:49.955Z,104.90
2019-01-25T21:33:53.773Z,112.17
2019-01-25T21:36:57.422Z,112.53
2019-01-25T21:40:08.181Z,109.33
2019-01-25T21:43:06.481Z,114.60
2019-01-25T21:46:10.177Z,138.87
2019-01-25T21:49:13.849Z,138.03
2019-01-25T21:52:17.519Z,133.03
2019-01-25T21:55:21.732Z,167.40
2019-01-25T21:58:25.451Z,129.57
2019-01-25T22:01:29.098Z,136.40
2019-01-25T22:04:33.027Z,135.83
2019-01-25T22:07:36.688Z,154.03
2019-01-25T22:10:43.956Z,136.80
2019-01-25T22:13:52.824Z,141.27
2019-01-25T22:16:53.067Z,146.00
2019-01-25T22:19:56.846Z,133.87
2019-01-25T22:23:00.761Z,143.03
2019-01-25T22:26:05.393Z,132.43
2019-01-25T22:29:09.029Z,136.53
2019-01-25T22:32:12.918Z,143.73
2019-01-25T22:35:16.516Z,144.80
2019-01-25T22:38:20.165Z,140.97
2019-01-25T22:41:23.887Z,137.23
2019-01-25T22:44:27.366Z,149.10
2019-01-25T22:47:31.095Z,149.80
2019-01-25T22:50:34.830Z,139.83
2019-01-25T22:53:38.516Z,142.33
2019-01-25T22:56:42.138Z,148.57
2019-01-25T22:59:45.852Z,142.80
2019-01-25T23:02:49.532Z,143.00
2019-01-25T23:06:11.385Z,139.27
2019-01-25T23:09:21.347Z,126.00
2019-01-25T23:12:25.079Z,135.60
2019-01-25T23:15:28.695Z,127.57
2019-01-25T23:18:32.285Z,130.07
2019-01-25T23:21:35.953Z,117.97
2019-01-25T23:24:39.583Z,122.37
2019-01-25T23:27:43.700Z,122.20
2019-01-25T23:30:47.416Z,129.00
2019-01-25T23:33:50.993Z,113.07
2019-01-25T23:36:54.732Z,135.33
2019-01-25T23:39:58.356Z,132.17
2019-01-25T23:43:03.340Z,116.80
2019-01-25T23:46:13.669Z,129.40
2019-01-25T23:49:12.323Z,120.60
2019-01-25T23:52:15.982Z,119.63
2019-01-25T23:55:19.710Z,112.00
2019-01-25T23:58:23.602Z,98.60
